createdAt,value
2019-04-30T00:02:34.745Z,61.43
2019-04-30T00:05:02.736Z,59.40
2019-04-30T00:07:38.250Z,62.33
2019-04-30T00:10:29.562Z,62.83
2019-04-30T00:12:59.583Z,62.03
2019-04-30T00:15:35.671Z,63.77
2019-04-30T00:18:18.133Z,59.87
2019-04-30T00:20:51.870Z,62.20
2019-04-30T00:23:27.132Z,54.03
2019-04-30T00:26:12.335Z,57.47
2019-04-30T00:28:47.669Z,54.00
2019-04-30T00:31:30.389Z,54.77
2019-04-30T00:34:05.035Z,55.60
2019-04-30T00:36:39.075Z,56.40
2019-04-30T00:39:14.292Z,52.13
2019-04-30T00:41:57.343Z,50.43
2019-04-30T00:44:31.548Z,49.60
2019-04-30T00:47:08.171Z,56.97
2019-04-30T00:49:52.132Z,51.73
2019-04-30T00:52:25.307Z,51.60
2019-04-30T00:55:00.347Z,47.27
2019-04-30T00:57:37.278Z,55.13
2019-04-30T01:00:46.606Z,57.67
2019-04-30T01:03:25.598Z,57.40
2019-04-30T01:05:59.085Z,57.77
2019-04-30T01:08:33.653Z,55.00
2019-04-30T01:11:09.616Z,56.77
2019-04-30T01:13:50.170Z,54.33
2019-04-30T01:16:32.909Z,55.13
2019-04-30T01:19:26.656Z,55.60
2019-04-30T01:21:50.450Z,56.43
2019-04-30T01:24:33.264Z,59.10
2019-04-30T01:27:10.298Z,53.77
2019-04-30T01:29:44.355Z,70.90
2019-04-30T01:32:20.825Z,56.57
2019-04-30T01:34:54.014Z,63.50
2019-04-30T01:37:31.343Z,58.53
2019-04-30T01:40:06.989Z,54.23
2019-04-30T01:42:42.901Z,53.43
2019-04-30T01:45:13.697Z,60.80
2019-04-30T01:47:49.492Z,75.77
2019-04-30T01:50:33.836Z,52.80
2019-04-30T01:53:18.512Z,56.07
2019-04-30T01:56:15.515Z,54.40
2019-04-30T01:58:53.075Z,59.67
2019-04-30T02:01:30.973Z,52.13
2019-04-30T02:04:03.782Z,61.77
2019-04-30T02:06:36.929Z,61.80
2019-04-30T02:09:11.549Z,56.73
2019-04-30T02:11:56.268Z,51.23
2019-04-30T02:14:39.577Z,56.40
2019-04-30T02:17:13.707Z,48.97
2019-04-30T02:19:56.460Z,48.67
2019-04-30T02:22:34.474Z,51.13
2019-04-30T02:25:19.505Z,49.17
2019-04-30T02:28:02.246Z,51.83
2019-04-30T02:30:45.079Z,52.57
2019-04-30T02:33:30.586Z,61.03
2019-04-30T02:36:23.872Z,46.83
2019-04-30T02:39:20.182Z,50.37
2019-04-30T02:42:02.649Z,48.00
2019-04-30T02:44:40.708Z,58.07
2019-04-30T02:47:17.036Z,51.27
2019-04-30T02:50:14.039Z,49.73
2019-04-30T02:52:40.145Z,45.83
2019-04-30T02:55:15.973Z,46.30
2019-04-30T02:57:50.023Z,44.50
2019-04-30T03:00:23.975Z,45.60
2019-04-30T03:03:12.623Z,45.50
2019-04-30T03:05:49.551Z,46.80
2019-04-30T03:08:36.020Z,43.03
2019-04-30T03:11:09.810Z,46.23
2019-04-30T03:13:43.388Z,43.33
2019-04-30T03:16:21.104Z,52.23
2019-04-30T03:19:40.441Z,49.80
2019-04-30T03:22:33.942Z,47.43
2019-04-30T03:25:09.413Z,52.80
2019-04-30T03:28:00.290Z,42.83
2019-04-30T03:30:43.850Z,47.70
2019-04-30T03:33:22.717Z,48.43
2019-04-30T03:35:55.104Z,49.23
2019-04-30T03:38:30.139Z,49.40
2019-04-30T03:41:06.001Z,50.23
2019-04-30T03:43:50.734Z,47.90
2019-04-30T03:46:34.509Z,48.37
2019-04-30T03:49:23.505Z,46.30
2019-04-30T03:52:10.005Z,48.10
2019-04-30T03:55:03.466Z,44.00
2019-04-30T03:57:39.690Z,48.93
2019-04-30T04:00:14.384Z,48.87
2019-04-30T04:02:50.128Z,68.07
2019-04-30T04:05:43.803Z,49.83
2019-04-30T04:08:43.443Z,61.87
2019-04-30T04:11:40.932Z,50.43
2019-04-30T04:14:20.467Z,65.50
2019-04-30T04:16:54.829Z,59.73
2019-04-30T04:19:29.262Z,60.83
2019-04-30T04:22:05.991Z,66.60
2019-04-30T04:24:40.288Z,59.70
2019-04-30T04:27:14.275Z,72.73
2019-04-30T04:29:56.947Z,75.07
2019-04-30T04:32:39.948Z,85.60
2019-04-30T04:35:13.580Z,81.40
2019-04-30T04:37:49.557Z,87.87
2019-04-30T04:40:34.313Z,84.77
2019-04-30T04:43:10.372Z,79.27
2019-04-30T04:45:44.553Z,84.87
2019-04-30T04:48:19.848Z,79.23
2019-04-30T04:50:53.295Z,86.13
2019-04-30T04:53:27.357Z,77.67
2019-04-30T04:56:10.276Z,81.13
2019-04-30T04:58:53.121Z,81.20
2019-04-30T05:01:40.131Z,82.30
2019-04-30T05:04:14.048Z,73.07
2019-04-30T05:06:51.736Z,84.37
2019-04-30T05:09:25.661Z,83.00
2019-04-30T05:12:02.298Z,78.73
2019-04-30T05:14:35.831Z,85.17
2019-04-30T05:17:09.916Z,85.10
2019-04-30T05:19:44.882Z,92.63
2019-04-30T05:22:19.052Z,96.43
2019-04-30T05:25:01.792Z,95.90
2019-04-30T05:27:36.471Z,98.33
2019-04-30T05:30:12.162Z,99.00
2019-04-30T05:32:59.266Z,95.07
2019-04-30T05:35:32.652Z,92.83
2019-04-30T05:38:06.139Z,97.00
2019-04-30T05:40:50.962Z,103.97
2019-04-30T05:43:24.320Z,97.17
2019-04-30T05:45:58.677Z,94.33
2019-04-30T05:48:32.362Z,93.43
2019-04-30T05:51:05.572Z,91.43
2019-04-30T05:53:39.528Z,90.13
2019-04-30T05:56:14.132Z,97.30
2019-04-30T05:58:49.438Z,87.97
2019-04-30T06:01:24.281Z,89.03
2019-04-30T06:03:59.398Z,91.63
2019-04-30T06:06:33.666Z,78.20
2019-04-30T06:09:28.594Z,83.00
2019-04-30T06:12:22.357Z,83.87
2019-04-30T06:15:15.754Z,88.90
2019-04-30T06:18:00.009Z,91.67
2019-04-30T06:20:38.613Z,85.97
2019-04-30T06:23:22.138Z,84.60
2019-04-30T06:26:00.016Z,91.83
2019-04-30T06:28:31.030Z,88.47
2019-04-30T06:31:04.590Z,95.53
2019-04-30T06:33:38.854Z,96.70
2019-04-30T06:36:24.171Z,97.40
2019-04-30T06:39:12.938Z,98.07
2019-04-30T06:41:46.761Z,92.63
2019-04-30T06:44:37.417Z,95.37
2019-04-30T06:47:06.325Z,95.97
2019-04-30T06:49:39.861Z,89.13
2019-04-30T06:52:20.802Z,85.20
2019-04-30T06:54:49.852Z,87.87
2019-04-30T06:57:23.914Z,86.73
2019-04-30T06:59:57.077Z,86.63
2019-04-30T07:02:31.870Z,84.83
2019-04-30T07:05:19.991Z,79.03
2019-04-30T07:08:12.263Z,75.23
2019-04-30T07:10:55.007Z,82.33
2019-04-30T07:13:25.724Z,87.07
2019-04-30T07:15:59.185Z,86.60
2019-04-30T07:18:32.893Z,86.00
2019-04-30T07:21:06.183Z,78.37
2019-04-30T07:23:50.507Z,81.17
2019-04-30T07:26:36.007Z,85.57
2019-04-30T07:29:10.480Z,80.43
2019-04-30T07:31:44.521Z,83.40
2019-04-30T07:34:19.642Z,76.57
2019-04-30T07:37:10.674Z,78.83
2019-04-30T07:39:40.659Z,73.03
2019-04-30T07:42:19.227Z,69.50
2019-04-30T07:45:09.701Z,70.50
2019-04-30T07:47:52.963Z,71.83
2019-04-30T07:50:27.348Z,69.03
2019-04-30T07:53:06.185Z,76.17
2019-04-30T07:55:39.300Z,71.87
2019-04-30T07:58:22.145Z,74.03
2019-04-30T08:01:10.030Z,75.43
2019-04-30T08:04:10.544Z,69.03
2019-04-30T08:06:43.848Z,69.00
2019-04-30T08:09:39.831Z,68.93
2019-04-30T08:12:29.757Z,67.90
2019-04-30T08:14:59.488Z,67.10
2019-04-30T08:17:45.139Z,74.93
2019-04-30T08:20:19.659Z,73.60
2019-04-30T08:22:53.422Z,68.47
2019-04-30T08:25:28.897Z,68.17
2019-04-30T08:28:01.890Z,72.23
2019-04-30T08:30:35.706Z,71.30
2019-04-30T08:33:09.627Z,66.83
2019-04-30T08:35:43.213Z,68.93
2019-04-30T08:38:16.411Z,65.60
2019-04-30T08:40:56.115Z,66.53
2019-04-30T08:43:39.741Z,64.27
2019-04-30T08:46:25.760Z,68.57
2019-04-30T08:49:09.635Z,64.70
2019-04-30T08:51:43.456Z,68.93
2019-04-30T08:54:19.709Z,65.00
2019-04-30T08:56:54.023Z,68.60
2019-04-30T08:59:42.372Z,61.37
2019-04-30T09:02:16.582Z,60.30
2019-04-30T09:05:02.939Z,60.10
2019-04-30T09:07:53.462Z,62.50
2019-04-30T09:12:46.889Z,63.60
2019-04-30T09:15:20.814Z,60.53
2019-04-30T09:18:03.091Z,64.47
2019-04-30T09:20:29.451Z,61.47
2019-04-30T09:23:03.547Z,59.27
2019-04-30T09:25:52.287Z,57.40
2019-04-30T09:28:34.662Z,56.40
2019-04-30T09:31:08.721Z,59.23
2019-04-30T09:33:51.140Z,64.63
2019-04-30T09:36:25.055Z,61.77
2019-04-30T09:39:01.318Z,60.20
2019-04-30T09:41:35.454Z,60.67
2019-04-30T09:44:09.985Z,59.70
2019-04-30T09:46:43.662Z,60.77
2019-04-30T09:49:17.211Z,58.10
2019-04-30T09:51:50.775Z,53.57
2019-04-30T09:54:25.456Z,51.13
2019-04-30T09:57:08.794Z,52.70
2019-04-30T09:59:43.190Z,48.63
2019-04-30T10:02:18.913Z,50.03
2019-04-30T10:04:52.482Z,48.57
2019-04-30T10:07:26.669Z,53.47
2019-04-30T10:10:00.527Z,51.73
2019-04-30T10:12:34.451Z,46.07
2019-04-30T10:15:11.517Z,50.70
2019-04-30T10:18:07.528Z,50.77
2019-04-30T10:20:42.545Z,47.63
2019-04-30T10:23:15.709Z,49.53
2019-04-30T10:26:04.668Z,47.17
2019-04-30T10:28:40.910Z,47.10
2019-04-30T10:31:14.514Z,45.47
2019-04-30T10:33:48.534Z,43.93
2019-04-30T10:36:22.763Z,42.80
2019-04-30T10:38:56.500Z,41.17
2019-04-30T10:41:30.172Z,43.93
2019-04-30T10:44:03.605Z,40.23
2019-04-30T10:46:37.230Z,42.80
2019-04-30T10:49:10.947Z,39.03
2019-04-30T10:51:43.793Z,38.43
2019-04-30T10:54:26.053Z,35.53
2019-04-30T10:56:54.774Z,35.60
2019-04-30T10:59:27.955Z,34.10
2019-04-30T11:02:01.449Z,32.87
2019-04-30T11:04:49.613Z,35.80
2019-04-30T11:07:22.841Z,36.37
2019-04-30T11:09:56.152Z,37.83
2019-04-30T11:12:33.832Z,33.80
2019-04-30T11:15:16.596Z,36.17
2019-04-30T11:17:50.782Z,36.60
2019-04-30T11:20:24.381Z,35.23
2019-04-30T11:22:58.476Z,35.53
2019-04-30T11:25:32.768Z,34.07
2019-04-30T11:28:16.723Z,39.20
2019-04-30T11:30:53.126Z,37.17
2019-04-30T11:33:26.928Z,34.13
2019-04-30T11:36:02.940Z,35.60
2019-04-30T11:38:48.664Z,32.33
2019-04-30T11:41:33.291Z,31.87
2019-04-30T11:44:09.236Z,31.80
2019-04-30T11:47:02.440Z,31.27
2019-04-30T11:49:38.053Z,32.10
2019-04-30T11:52:20.437Z,32.33
2019-04-30T11:54:55.507Z,31.93
2019-04-30T11:57:39.766Z,35.70
2019-04-30T12:00:18.824Z,32.97
2019-04-30T12:03:09.025Z,32.47
2019-04-30T12:05:51.379Z,27.67
2019-04-30T12:08:29.381Z,30.40
2019-04-30T12:11:09.961Z,33.10
2019-04-30T12:14:00.793Z,31.73
2019-04-30T12:16:34.055Z,32.07
2019-04-30T12:19:09.045Z,32.87
2019-04-30T12:21:43.510Z,30.67
2019-04-30T12:24:31.989Z,31.47
2019-04-30T12:27:15.378Z,30.07
2019-04-30T12:29:49.565Z,30.43
2019-04-30T12:32:23.475Z,30.57
2019-04-30T12:34:57.790Z,27.20
2019-04-30T12:37:31.457Z,29.67
2019-04-30T12:40:05.736Z,29.07
2019-04-30T12:42:38.953Z,29.37
2019-04-30T12:45:12.531Z,29.53
2019-04-30T12:47:51.015Z,29.47
2019-04-30T12:50:51.336Z,34.10
2019-04-30T12:53:48.935Z,29.00
2019-04-30T12:56:50.805Z,27.97
2019-04-30T12:59:25.925Z,24.33
2019-04-30T13:02:14.281Z,24.83
2019-04-30T13:04:49.401Z,29.13
2019-04-30T13:07:41.094Z,27.00
2019-04-30T13:10:25.393Z,24.90
2019-04-30T13:12:59.886Z,25.00
2019-04-30T13:15:45.810Z,24.40
2019-04-30T13:18:20.455Z,22.50
2019-04-30T13:20:53.396Z,22.97
2019-04-30T13:23:35.683Z,21.80
2019-04-30T13:26:09.729Z,19.57
2019-04-30T13:29:05.945Z,22.57
2019-04-30T13:31:40.403Z,22.57
2019-04-30T13:34:30.945Z,20.80
2019-04-30T13:37:06.335Z,23.90
2019-04-30T13:39:52.212Z,25.00
2019-04-30T13:42:33.167Z,22.63
2019-04-30T13:45:07.913Z,23.40
2019-04-30T13:47:41.511Z,22.13
2019-04-30T13:50:14.888Z,23.30
2019-04-30T13:52:49.127Z,23.13
2019-04-30T13:55:22.715Z,22.60
2019-04-30T13:57:57.211Z,26.83
2019-04-30T14:00:31.274Z,22.77
2019-04-30T14:03:21.736Z,23.63
2019-04-30T14:06:20.831Z,25.13
2019-04-30T14:08:55.892Z,22.27
2019-04-30T14:11:30.000Z,24.23
2019-04-30T14:14:12.329Z,21.77
2019-04-30T14:16:45.612Z,23.83
2019-04-30T14:19:19.621Z,22.07
2019-04-30T14:21:53.923Z,21.83
2019-04-30T14:24:36.884Z,20.17
2019-04-30T14:27:10.719Z,20.90
2019-04-30T14:29:43.677Z,18.43
2019-04-30T14:32:18.568Z,19.37
2019-04-30T14:34:52.750Z,19.10
2019-04-30T14:37:33.452Z,21.67
2019-04-30T14:40:22.928Z,20.37
2019-04-30T14:43:03.585Z,21.53
2019-04-30T14:46:10.148Z,20.03
2019-04-30T14:48:51.013Z,18.97
2019-04-30T14:51:24.151Z,18.80
2019-04-30T14:54:15.557Z,20.90
2019-04-30T14:56:59.414Z,18.63
2019-04-30T14:59:58.773Z,19.33
2019-04-30T15:02:39.365Z,21.63
2019-04-30T15:05:38.574Z,23.93
2019-04-30T15:08:04.192Z,19.33
2019-04-30T15:10:37.558Z,22.40
2019-04-30T15:13:11.426Z,22.53
2019-04-30T15:15:46.071Z,21.57
2019-04-30T15:18:29.052Z,22.03
2019-04-30T15:21:03.031Z,24.03
2019-04-30T15:23:58.875Z,21.73
2019-04-30T15:26:45.496Z,25.17
2019-04-30T15:29:21.096Z,22.27
2019-04-30T15:31:55.288Z,22.87
2019-04-30T15:34:44.462Z,22.87
2019-04-30T15:37:21.647Z,23.23
2019-04-30T15:39:52.923Z,20.67
2019-04-30T15:42:26.642Z,31.20
2019-04-30T15:45:00.122Z,39.30
2019-04-30T15:47:33.737Z,25.57
2019-04-30T15:50:06.987Z,23.83
2019-04-30T15:52:49.295Z,24.63
2019-04-30T15:55:23.654Z,25.13
2019-04-30T15:58:02.121Z,21.43
2019-04-30T16:00:36.412Z,23.67
2019-04-30T16:03:16.467Z,26.10
2019-04-30T16:05:51.739Z,24.20
2019-04-30T16:08:36.358Z,24.30
2019-04-30T16:11:32.122Z,22.90
2019-04-30T16:14:13.170Z,25.83
2019-04-30T16:17:20.384Z,23.83
2019-04-30T16:19:54.144Z,26.50
2019-04-30T16:22:39.178Z,22.10
2019-04-30T16:25:13.815Z,29.57
2019-04-30T16:27:47.720Z,24.23
2019-04-30T16:30:21.314Z,25.07
2019-04-30T16:33:01.159Z,22.87
2019-04-30T16:35:34.448Z,22.23
2019-04-30T16:38:18.362Z,24.50
2019-04-30T16:41:02.189Z,25.53
2019-04-30T16:43:36.151Z,23.70
2019-04-30T16:46:09.780Z,25.83
2019-04-30T16:48:44.028Z,25.73
2019-04-30T16:51:28.851Z,25.30
2019-04-30T16:54:01.941Z,24.00
2019-04-30T16:56:45.316Z,23.23
2019-04-30T16:59:22.916Z,23.60
2019-04-30T17:01:57.903Z,23.90
2019-04-30T17:04:56.302Z,25.27
2019-04-30T17:08:20.128Z,26.97
2019-04-30T17:11:15.923Z,22.93
2019-04-30T17:13:53.263Z,23.33
2019-04-30T17:16:27.084Z,25.20
2019-04-30T17:19:01.437Z,27.87
2019-04-30T17:21:43.512Z,25.53
2019-04-30T17:24:19.389Z,27.87
2019-04-30T17:27:01.928Z,29.67
2019-04-30T17:29:35.941Z,29.20
2019-04-30T17:32:18.685Z,27.80
2019-04-30T17:35:02.022Z,26.13
2019-04-30T17:37:36.443Z,27.50
2019-04-30T17:40:19.268Z,28.90
2019-04-30T17:42:53.032Z,26.77
2019-04-30T17:45:32.535Z,28.73
2019-04-30T17:48:05.789Z,25.03
2019-04-30T17:50:49.742Z,27.47
2019-04-30T17:53:33.364Z,27.90
2019-04-30T17:56:25.361Z,29.43
2019-04-30T17:58:59.987Z,32.47
2019-04-30T18:01:33.899Z,29.27
2019-04-30T18:04:25.446Z,30.87
2019-04-30T18:07:13.626Z,32.47
2019-04-30T18:09:48.815Z,34.20
2019-04-30T18:12:26.960Z,34.77
2019-04-30T18:15:02.080Z,35.33
2019-04-30T18:17:35.857Z,34.77
2019-04-30T18:20:22.744Z,32.57
2019-04-30T18:23:35.433Z,34.67
2019-04-30T18:26:13.635Z,36.43
2019-04-30T18:28:47.117Z,36.73
2019-04-30T18:31:21.507Z,35.77
2019-04-30T18:33:56.110Z,36.93
2019-04-30T18:36:30.652Z,39.10
2019-04-30T18:39:08.939Z,39.23
2019-04-30T18:41:53.453Z,36.50
2019-04-30T18:44:35.766Z,35.70
2019-04-30T18:47:09.398Z,39.13
2019-04-30T18:49:42.651Z,35.33
2019-04-30T18:52:16.292Z,40.50
2019-04-30T18:54:50.143Z,39.47
2019-04-30T18:57:23.933Z,37.73
2019-04-30T18:59:59.159Z,40.00
2019-04-30T19:02:32.758Z,39.13
2019-04-30T19:05:09.554Z,39.77
2019-04-30T19:07:50.990Z,39.90
2019-04-30T19:10:43.662Z,36.60
2019-04-30T19:13:32.241Z,40.87
2019-04-30T19:16:29.995Z,38.33
2019-04-30T19:19:31.522Z,41.40
2019-04-30T19:22:05.075Z,37.67
2019-04-30T19:24:39.489Z,41.97
2019-04-30T19:27:13.132Z,41.53
2019-04-30T19:29:49.089Z,41.63
2019-04-30T19:32:23.764Z,40.13
2019-04-30T19:34:59.006Z,43.03
2019-04-30T19:37:41.566Z,42.97
2019-04-30T19:40:15.266Z,41.70
2019-04-30T19:42:50.943Z,43.37
2019-04-30T19:45:24.614Z,44.80
2019-04-30T19:47:58.882Z,42.50
2019-04-30T19:50:48.879Z,43.60
2019-04-30T19:53:22.450Z,44.60
2019-04-30T19:55:56.028Z,40.80
2019-04-30T19:58:50.007Z,43.27
2019-04-30T20:01:20.243Z,39.70
2019-04-30T20:03:53.282Z,43.20
2019-04-30T20:06:28.727Z,45.13
2019-04-30T20:09:03.171Z,46.10
2019-04-30T20:11:49.318Z,42.53
2019-04-30T20:14:33.570Z,40.77
2019-04-30T20:17:08.885Z,42.40
2019-04-30T20:19:42.175Z,44.60
2019-04-30T20:22:24.407Z,44.77
2019-04-30T20:24:59.247Z,42.20
2019-04-30T20:27:32.719Z,40.17
2019-04-30T20:30:09.408Z,39.93
2019-04-30T20:32:51.371Z,38.73
2019-04-30T20:35:26.513Z,43.27
2019-04-30T20:38:17.182Z,43.97
2019-04-30T20:41:00.019Z,42.83
2019-04-30T20:43:28.659Z,42.43
2019-04-30T20:46:11.565Z,42.37
2019-04-30T20:48:53.937Z,40.03
2019-04-30T20:51:29.081Z,50.90
2019-04-30T20:54:02.629Z,47.93
2019-04-30T20:56:36.029Z,49.33
2019-04-30T20:59:10.842Z,46.17
2019-04-30T21:01:55.079Z,49.87
2019-04-30T21:04:29.024Z,51.93
2019-04-30T21:07:02.539Z,47.03
2019-04-30T21:09:36.253Z,52.23
2019-04-30T21:12:09.765Z,50.27
2019-04-30T21:14:43.467Z,49.17
2019-04-30T21:17:16.657Z,48.23
2019-04-30T21:19:49.841Z,48.20
2019-04-30T21:22:23.423Z,52.70
2019-04-30T21:25:00.334Z,47.07
2019-04-30T21:27:42.249Z,44.30
2019-04-30T21:30:15.555Z,42.03
2019-04-30T21:33:10.972Z,44.67
2019-04-30T21:36:12.279Z,45.17
2019-04-30T21:38:46.462Z,44.37
2019-04-30T21:41:29.670Z,44.50
2019-04-30T21:44:03.590Z,48.50
2019-04-30T21:46:39.405Z,47.00
2019-04-30T21:49:12.720Z,41.90
2019-04-30T21:51:46.353Z,45.17
2019-04-30T21:54:19.862Z,46.67
2019-04-30T21:56:53.063Z,51.70
2019-04-30T21:59:30.139Z,47.40
2019-04-30T22:02:01.956Z,44.73
2019-04-30T22:04:35.539Z,52.10
2019-04-30T22:07:09.467Z,53.23
2019-04-30T22:09:43.624Z,56.27
2019-04-30T22:12:26.439Z,53.63
2019-04-30T22:15:14.165Z,56.90
2019-04-30T22:17:56.862Z,54.70
2019-04-30T22:20:45.553Z,58.03
2019-04-30T22:23:19.035Z,57.87
2019-04-30T22:25:58.820Z,57.73
2019-04-30T22:28:32.694Z,59.47
2019-04-30T22:31:05.842Z,58.70
2019-04-30T22:33:40.126Z,64.53
2019-04-30T22:36:34.230Z,63.70
2019-04-30T22:39:42.885Z,61.87
2019-04-30T22:42:34.780Z,58.03
2019-04-30T22:45:31.118Z,57.57
2019-04-30T22:48:04.610Z,58.50
2019-04-30T22:50:39.070Z,62.20
2019-04-30T22:53:21.865Z,62.77
2019-04-30T22:55:55.753Z,59.23
2019-04-30T22:58:37.835Z,55.33
2019-04-30T23:01:39.614Z,58.00
2019-04-30T23:04:39.214Z,60.37
2019-04-30T23:07:13.267Z,56.73
2019-04-30T23:09:55.940Z,55.87
2019-04-30T23:12:39.082Z,59.13
2019-04-30T23:15:21.493Z,53.93
2019-04-30T23:17:55.902Z,50.37
2019-04-30T23:20:29.353Z,52.17
2019-04-30T23:23:12.078Z,54.33
2019-04-30T23:25:54.649Z,51.00
2019-04-30T23:28:28.842Z,48.73
2019-04-30T23:31:12.075Z,46.43
2019-04-30T23:33:45.947Z,43.50
2019-04-30T23:36:19.410Z,49.07
2019-04-30T23:38:54.780Z,46.63
2019-04-30T23:41:28.602Z,51.47
2019-04-30T23:44:02.515Z,47.83
2019-04-30T23:46:44.734Z,44.87
2019-04-30T23:49:18.630Z,46.03
2019-04-30T23:51:52.245Z,44.93
2019-04-30T23:54:25.832Z,45.13
2019-04-30T23:57:00.069Z,45.53
2019-04-30T23:59:44.088Z,44.60
